Time;durP1;ratioP1;P1;durP2;ratioP2;P2;SDS_P1;SDS_P2;PMS_P1;PMS_P2;Temp;Humidity;BMP_temperature;BMP_pressure;BME280_temperature;BME280_humidity;BME280_pressure;Samples;Min_cycle;Max_cycle;Signal;HPM_P1;HPM_P2
2022/08/20 00:00:18;;;;;;;11.75;4.40;;;19.20;99.90;;;;;;4981774;28;20042;-56
2022/08/20 00:02:49;;;;;;;14.25;4.75;;;19.20;99.90;;;;;;4997980;28;20272;-56
2022/08/20 00:05:20;;;;;;;15.57;5.10;;;19.10;99.90;;;;;;4992865;28;20403;-56
2022/08/20 00:07:46;;;;;;;11.45;4.78;;;19.10;99.90;;;;;;4990546;28;20049;-52
2022/08/20 00:10:11;;;;;;;14.25;4.65;;;19.10;99.90;;;;;;4989170;28;20042;-55
2022/08/20 00:12:43;;;;;;;9.13;4.95;;;19.10;99.90;;;;;;4992620;28;20077;-55
2022/08/20 00:15:11;;;;;;;13.57;5.32;;;19.00;99.90;;;;;;5002142;28;20515;-53
2022/08/20 00:17:37;;;;;;;12.07;5.75;;;19.00;99.90;;;;;;4967070;28;20042;-53
2022/08/20 00:20:11;;;;;;;9.95;4.53;;;19.00;99.90;;;;;;4986902;28;20638;-53
2022/08/20 00:22:36;;;;;;;;;;;19.00;99.90;;;;;;4994067;28;20042;-57
2022/08/20 00:25:05;;;;;;;10.23;5.47;;;19.00;99.90;;;;;;4988793;28;20422;-53
2022/08/20 00:27:31;;;;;;;12.07;5.32;;;18.90;99.90;;;;;;4990642;28;20071;-52
2022/08/20 00:29:57;;;;;;;11.55;5.30;;;18.90;99.90;;;;;;4984996;28;20046;-53
2022/08/20 00:32:23;;;;;;;9.40;5.18;;;18.90;99.90;;;;;;4984507;28;20547;-54
2022/08/20 00:34:49;;;;;;;13.05;5.70;;;18.90;99.90;;;;;;4984440;28;20491;-53
2022/08/20 00:37:15;;;;;;;12.30;5.30;;;18.80;99.90;;;;;;4959708;28;20097;-55
2022/08/20 00:39:40;;;;;;;9.65;5.65;;;18.90;99.90;;;;;;4992189;28;20033;-56
2022/08/20 00:42:07;;;;;;;10.85;5.53;;;18.80;99.90;;;;;;4981587;28;20103;-56
2022/08/20 00:44:32;;;;;;;14.57;6.10;;;18.70;99.90;;;;;;4988575;28;20132;-54
2022/08/20 00:46:58;;;;;;;9.70;5.78;;;18.80;99.90;;;;;;4985396;28;20461;-56
2022/08/20 00:49:27;;;;;;;8.82;5.28;;;18.70;99.90;;;;;;4971290;28;20095;-56
2022/08/20 00:51:58;;;;;;;8.77;5.10;;;18.70;99.90;;;;;;4996300;28;20501;-55
2022/08/20 00:54:48;;;;;;;10.57;5.70;;;18.60;99.90;;;;;;4991552;28;20128;-57
2022/08/20 00:57:24;;;;;;;13.75;5.57;;;18.60;99.90;;;;;;4989704;28;20396;-55
2022/08/20 00:59:51;;;;;;;8.10;4.45;;;18.50;99.90;;;;;;4980141;28;20042;-53
2022/08/20 01:02:20;;;;;;;10.05;5.78;;;18.50;99.90;;;;;;4983115;28;20113;-53
2022/08/20 01:04:49;;;;;;;10.57;5.78;;;18.50;99.90;;;;;;4990679;28;20034;-55
2022/08/20 01:07:19;;;;;;;12.38;6.32;;;18.50;99.90;;;;;;4974880;28;20087;-56
2022/08/20 01:09:45;;;;;;;7.65;4.68;;;18.50;99.90;;;;;;4984878;28;20071;-55
2022/08/20 01:12:13;;;;;;;10.88;5.93;;;18.50;99.90;;;;;;4993480;28;20410;-56
2022/08/20 01:14:44;;;;;;;11.95;6.20;;;18.50;99.90;;;;;;4967431;28;20072;-53
2022/08/20 01:17:16;;;;;;;10.15;6.45;;;18.40;99.90;;;;;;4991126;28;20317;-53
2022/08/20 01:19:51;;;;;;;12.82;6.10;;;18.40;99.90;;;;;;4962027;28;20054;-56
2022/08/20 01:25:51;;;;;;;13.70;6.30;;;18.40;99.90;;;;;;5002692;28;20054;-56
2022/08/20 01:28:22;;;;;;;7.82;4.95;;;18.40;99.90;;;;;;4988852;28;20497;-54
2022/08/20 01:30:48;;;;;;;13.05;6.13;;;18.30;99.90;;;;;;4998386;28;20057;-56
2022/08/20 01:33:17;;;;;;;13.82;6.85;;;18.30;99.90;;;;;;4978138;28;20161;-57
2022/08/20 01:35:43;;;;;;;12.43;5.85;;;18.40;99.90;;;;;;4989218;28;20045;-57
2022/08/20 01:38:10;;;;;;;8.63;5.82;;;18.40;99.90;;;;;;4992022;28;20049;-56
2022/08/20 01:40:54;;;;;;;9.85;6.25;;;18.40;99.90;;;;;;5001229;28;20322;-57
2022/08/20 01:43:20;;;;;;;9.52;5.30;;;18.40;99.90;;;;;;4996254;28;20444;-56
2022/08/20 01:45:46;;;;;;;10.38;5.75;;;18.30;99.90;;;;;;4984475;28;20038;-55
2022/08/20 01:48:14;;;;;;;10.57;5.35;;;18.30;99.90;;;;;;4993927;28;20400;-57
2022/08/20 01:50:44;;;;;;;10.93;5.85;;;18.30;99.90;;;;;;4999652;28;20049;-55
2022/08/20 01:53:20;;;;;;;11.13;6.55;;;18.30;99.90;;;;;;4992030;28;20232;-56
2022/08/20 01:55:46;;;;;;;10.68;6.82;;;18.20;99.90;;;;;;4997761;28;20092;-55
2022/08/20 01:58:12;;;;;;;14.93;6.32;;;18.20;99.90;;;;;;5005808;28;20049;-56
2022/08/20 02:00:38;;;;;;;7.32;5.15;;;18.20;99.90;;;;;;4997474;28;20050;-56
2022/08/20 02:03:03;;;;;;;9.88;5.78;;;18.20;99.90;;;;;;4987590;28;20053;-56
2022/08/20 02:05:31;;;;;;;11.68;5.50;;;18.10;99.90;;;;;;4988559;28;20044;-58
2022/08/20 02:07:57;;;;;;;13.75;5.45;;;18.10;99.90;;;;;;4997380;28;20033;-56
2022/08/20 02:10:22;;;;;;;9.75;4.65;;;18.00;99.90;;;;;;5001708;28;20042;-58
2022/08/20 02:12:49;;;;;;;9.98;4.60;;;18.00;99.90;;;;;;4997700;28;20374;-58
2022/08/20 02:15:15;;;;;;;12.10;4.82;;;18.00;99.90;;;;;;4983459;28;20070;-56
2022/08/20 02:17:41;;;;;;;8.82;4.00;;;17.90;99.90;;;;;;4975136;28;20038;-58
2022/08/20 02:20:14;;;;;;;12.55;5.68;;;17.90;99.90;;;;;;4989817;28;20045;-58
2022/08/20 02:22:53;;;;;;;8.27;4.43;;;18.00;99.90;;;;;;4991067;28;20050;-55
2022/08/20 02:25:21;;;;;;;9.65;3.95;;;17.90;99.90;;;;;;4990832;28;20042;-57
2022/08/20 02:27:49;;;;;;;10.18;4.38;;;17.80;99.90;;;;;;4991350;28;20052;-56
2022/08/20 02:30:22;;;;;;;8.77;4.18;;;17.80;99.90;;;;;;4985390;28;20042;-55
2022/08/20 02:32:48;;;;;;;9.00;3.17;;;17.80;99.90;;;;;;4989127;28;20038;-56
2022/08/20 02:35:14;;;;;;;9.55;3.00;;;17.70;99.90;;;;;;4990526;28;20064;-56
2022/08/20 02:37:42;;;;;;;6.75;2.70;;;17.70;99.90;;;;;;4991775;28;20232;-55
2022/08/20 02:40:10;;;;;;;8.95;3.17;;;17.60;99.90;;;;;;4995065;28;20041;-53
2022/08/20 02:42:37;;;;;;;10.65;3.25;;;17.60;99.90;;;;;;4986531;28;20041;-56
2022/08/20 02:45:05;;;;;;;10.77;2.65;;;17.60;99.90;;;;;;4982189;28;20050;-55
2022/08/20 02:47:31;;;;;;;9.45;2.75;;;17.50;99.90;;;;;;4988484;28;20042;-56
2022/08/20 02:49:58;;;;;;;9.20;2.40;;;17.50;99.90;;;;;;4976025;28;20038;-56
2022/08/20 02:52:24;;;;;;;8.40;2.30;;;17.60;99.90;;;;;;4989486;28;20042;-56
2022/08/20 02:54:51;;;;;;;10.27;3.10;;;17.50;99.90;;;;;;4987556;28;20413;-54
2022/08/20 02:57:21;;;;;;;8.07;2.33;;;17.50;99.90;;;;;;4959869;28;20064;-55
2022/08/20 02:59:48;;;;;;;7.72;2.40;;;17.60;99.90;;;;;;4965909;28;20139;-56
2022/08/20 03:02:14;;;;;;;9.20;2.33;;;17.50;99.90;;;;;;4978801;28;20064;-54
2022/08/20 03:04:41;;;;;;;7.15;2.60;;;17.50;99.90;;;;;;4980770;28;22042;-55
2022/08/20 03:07:09;;;;;;;10.18;2.58;;;17.60;99.90;;;;;;4994103;28;20136;-56
2022/08/20 03:09:35;;;;;;;11.52;3.15;;;17.50;99.90;;;;;;4996182;28;20055;-56
2022/08/20 03:12:02;;;;;;;7.90;3.53;;;17.50;99.90;;;;;;4974895;28;20038;-56
2022/08/20 03:14:28;;;;;;;8.10;2.40;;;17.50;99.90;;;;;;4999796;28;20084;-56
2022/08/20 03:16:54;;;;;;;6.97;2.75;;;17.40;99.90;;;;;;5001260;28;20071;-55
2022/08/20 03:19:20;;;;;;;9.48;3.33;;;17.40;99.90;;;;;;4993233;28;20045;-54
2022/08/20 03:21:45;;;;;;;8.20;3.25;;;17.30;99.90;;;;;;4997947;28;20060;-53
2022/08/20 03:24:11;;;;;;;10.60;3.38;;;17.30;99.90;;;;;;4998785;28;20073;-55
2022/08/20 03:26:37;;;;;;;13.13;3.20;;;17.20;99.90;;;;;;4998964;28;20038;-56
2022/08/20 03:29:03;;;;;;;6.78;2.95;;;17.20;99.90;;;;;;4996773;28;20686;-55
2022/08/20 03:31:29;;;;;;;8.32;2.95;;;17.10;99.90;;;;;;5010681;28;20100;-56
2022/08/20 03:33:54;;;;;;;8.95;3.30;;;17.10;99.90;;;;;;4996929;28;20088;-56
2022/08/20 03:36:22;;;;;;;7.95;3.38;;;17.00;99.90;;;;;;4992955;28;20101;-55
2022/08/20 03:38:48;;;;;;;7.18;3.33;;;17.00;99.90;;;;;;4995382;28;20073;-56
2022/08/20 03:41:14;;;;;;;9.13;3.20;;;16.90;99.90;;;;;;4990696;28;20587;-54
2022/08/20 03:43:40;;;;;;;10.13;2.80;;;16.90;99.90;;;;;;4979482;28;20295;-55
2022/08/20 03:46:07;;;;;;;11.50;3.47;;;16.90;99.90;;;;;;5013085;28;20413;-56
2022/08/20 03:48:33;;;;;;;13.75;3.15;;;16.80;99.90;;;;;;4997000;28;20049;-56
2022/08/20 03:50:59;;;;;;;7.32;3.28;;;16.80;99.90;;;;;;4999851;28;20631;-54
2022/08/20 03:53:30;;;;;;;7.28;2.83;;;16.70;99.90;;;;;;4981712;28;20034;-55
2022/08/20 03:55:59;;;;;;;8.57;2.70;;;16.70;99.90;;;;;;4994508;28;20030;-56
2022/08/20 03:58:27;;;;;;;8.68;2.90;;;16.70;99.90;;;;;;4976538;28;20045;-57
2022/08/20 04:00:54;;;;;;;13.05;3.20;;;16.60;99.90;;;;;;4986091;28;20049;-57
2022/08/20 04:03:21;;;;;;;6.80;2.70;;;16.50;99.90;;;;;;4988078;28;20058;-57
2022/08/20 04:05:48;;;;;;;8.55;2.95;;;16.50;99.90;;;;;;4982506;28;20096;-56
2022/08/20 04:08:22;;;;;;;10.32;3.40;;;16.40;99.90;;;;;;4977821;28;20073;-57
2022/08/20 04:10:49;;;;;;;8.50;2.97;;;16.40;99.90;;;;;;5018475;23;20483;-60
2022/08/20 04:13:18;;;;;;;7.35;2.70;;;16.40;99.90;;;;;;5021926;28;20499;-61
2022/08/20 04:15:44;;;;;;;10.55;3.05;;;16.30;99.90;;;;;;5016344;28;20034;-62
2022/08/20 04:18:12;;;;;;;6.65;3.05;;;16.30;99.90;;;;;;5012870;28;20049;-61
2022/08/20 04:20:40;;;;;;;5.65;3.35;;;16.20;99.90;;;;;;5005390;28;20073;-61
2022/08/20 04:23:07;;;;;;;8.98;2.80;;;16.20;99.90;;;;;;4992191;28;20046;-61
2022/08/20 04:25:35;;;;;;;7.93;2.97;;;16.20;99.90;;;;;;4999571;28;20054;-61
2022/08/20 04:28:04;;;;;;;6.95;2.92;;;16.20;99.90;;;;;;5005845;28;20492;-61
2022/08/20 04:30:31;;;;;;;6.25;2.88;;;16.20;99.90;;;;;;4999096;28;20030;-61
2022/08/20 04:32:58;;;;;;;6.32;2.63;;;16.10;99.90;;;;;;4990920;28;20053;-61
2022/08/20 04:35:25;;;;;;;8.32;2.65;;;16.10;99.90;;;;;;5001491;28;20034;-62
2022/08/20 04:38:08;;;;;;;7.28;3.05;;;16.00;99.90;;;;;;5006142;28;20037;-62
2022/08/20 04:40:56;;;;;;;11.85;3.25;;;16.00;99.90;;;;;;5009387;28;20096;-61
2022/08/20 04:43:29;;;;;;;9.00;2.70;;;15.90;99.90;;;;;;5005159;28;20124;-61
2022/08/20 04:45:57;;;;;;;7.93;3.20;;;15.80;99.90;;;;;;5001896;28;20060;-62
2022/08/20 04:48:26;;;;;;;11.52;3.22;;;15.80;99.90;;;;;;5008806;28;20054;-62
2022/08/20 04:50:53;;;;;;;9.13;3.25;;;15.80;99.90;;;;;;5008103;28;20113;-61
2022/08/20 04:53:22;;;;;;;7.70;2.70;;;15.80;99.90;;;;;;5008770;28;20053;-62
2022/08/20 04:55:49;;;;;;;6.75;2.70;;;15.80;99.90;;;;;;4999022;28;20132;-60
2022/08/20 04:58:22;;;;;;;10.13;2.75;;;15.80;99.90;;;;;;5004936;28;20046;-60
2022/08/20 05:00:50;;;;;;;5.57;2.70;;;15.80;99.90;;;;;;5006544;28;20125;-60
2022/08/20 05:03:16;;;;;;;5.15;2.83;;;15.80;99.90;;;;;;5008772;28;20129;-60
2022/08/20 05:05:44;;;;;;;8.52;2.22;;;15.80;99.90;;;;;;4999868;28;20046;-61
2022/08/20 05:08:11;;;;;;;6.63;2.35;;;15.80;99.90;;;;;;5000496;28;20096;-60
2022/08/20 05:10:38;;;;;;;7.03;2.50;;;15.70;99.90;;;;;;5002038;28;20025;-60
2022/08/20 05:13:05;;;;;;;9.15;2.78;;;15.70;99.90;;;;;;5003653;28;20038;-61
2022/08/20 05:15:31;;;;;;;6.47;2.47;;;15.70;99.90;;;;;;4994032;28;20551;-61
2022/08/20 05:18:01;;;;;;;6.00;2.70;;;15.70;99.90;;;;;;5004603;28;20069;-61
2022/08/20 05:20:30;;;;;;;5.95;2.70;;;15.60;99.90;;;;;;5004106;28;20424;-61
2022/08/20 05:22:59;;;;;;;7.22;3.17;;;15.70;99.90;;;;;;5000913;28;20073;-60
2022/08/20 05:25:30;;;;;;;10.27;3.90;;;15.60;99.90;;;;;;4993763;28;20049;-60
2022/08/20 05:28:11;;;;;;;10.82;3.47;;;15.60;99.90;;;;;;5004631;28;20045;-61
2022/08/20 05:30:45;;;;;;;8.55;3.45;;;15.70;99.90;;;;;;5004450;28;20042;-60
2022/08/20 05:33:14;;;;;;;10.32;3.40;;;15.60;99.90;;;;;;5004452;28;20050;-61
2022/08/20 05:35:42;;;;;;;10.40;3.83;;;15.60;99.90;;;;;;4993483;28;20133;-61
2022/08/20 05:38:13;;;;;;;8.57;3.30;;;15.60;99.90;;;;;;4960144;28;20050;-60
2022/08/20 05:40:39;;;;;;;9.10;3.30;;;15.60;99.90;;;;;;4998216;28;20125;-60
2022/08/20 05:43:06;;;;;;;13.88;3.67;;;15.70;99.90;;;;;;4996149;28;20436;-61
2022/08/20 05:45:33;;;;;;;6.95;2.60;;;15.70;99.90;;;;;;4998003;28;20463;-60
2022/08/20 05:48:04;;;;;;;12.75;3.85;;;15.80;99.90;;;;;;4997729;28;20042;-60
2022/08/20 05:50:31;;;;;;;9.60;3.58;;;15.80;99.90;;;;;;4999404;28;20034;-61
2022/08/20 05:52:56;;;;;;;8.63;2.78;;;15.80;99.90;;;;;;4999191;28;20042;-60
2022/08/20 05:55:23;;;;;;;11.00;3.10;;;15.90;99.90;;;;;;5006082;28;20042;-60
2022/08/20 05:57:55;;;;;;;6.43;2.90;;;16.00;99.90;;;;;;5007633;28;20026;-60
2022/08/20 06:00:21;;;;;;;11.20;3.00;;;16.00;99.90;;;;;;4999886;28;20050;-60
2022/08/20 06:05:30;;;;;;;;;;;16.20;99.90;;;;;;4999641;28;20053;-59
2022/08/20 06:07:56;;;;;;;8.48;3.05;;;16.20;99.90;;;;;;5002138;28;19968;-61
2022/08/20 06:10:22;;;;;;;6.68;2.70;;;16.30;99.90;;;;;;4983061;28;20134;-61
2022/08/20 06:12:47;;;;;;;11.50;3.67;;;16.40;99.90;;;;;;5003546;28;20037;-60
2022/08/20 06:15:14;;;;;;;9.55;3.08;;;16.50;99.90;;;;;;4998038;28;20042;-60
2022/08/20 06:17:40;;;;;;;6.43;2.80;;;16.60;99.90;;;;;;5001075;28;20840;-60
2022/08/20 06:20:08;;;;;;;8.02;2.72;;;16.70;99.90;;;;;;4997330;28;20074;-60
2022/08/20 06:22:34;;;;;;;7.47;2.30;;;16.80;99.90;;;;;;5007371;28;20048;-61
2022/08/20 06:25:00;;;;;;;7.47;2.10;;;16.90;99.90;;;;;;5001122;28;20040;-60
2022/08/20 06:27:26;;;;;;;8.85;2.25;;;17.00;99.90;;;;;;5002023;28;20034;-59
2022/08/20 06:29:53;;;;;;;5.43;2.03;;;17.00;99.90;;;;;;4998828;28;20121;-60
2022/08/20 06:32:21;;;;;;;13.27;2.95;;;17.10;99.90;;;;;;4993167;28;20038;-60
2022/08/20 06:34:47;;;;;;;5.20;2.42;;;17.20;99.90;;;;;;4991090;28;20042;-60
2022/08/20 06:37:16;;;;;;;11.25;2.17;;;17.30;99.90;;;;;;5003694;28;20038;-60
2022/08/20 06:39:43;;;;;;;8.75;2.20;;;17.30;99.90;;;;;;4999348;28;20049;-61
2022/08/20 06:42:09;;;;;;;9.30;2.20;;;17.30;99.90;;;;;;5004258;28;20042;-60
2022/08/20 06:44:35;;;;;;;8.88;2.67;;;17.40;99.90;;;;;;4998528;28;20133;-61
2022/08/20 06:47:03;;;;;;;8.80;1.95;;;17.50;99.90;;;;;;5000061;28;20414;-61
2022/08/20 06:49:30;;;;;;;9.38;2.47;;;17.70;99.90;;;;;;4992621;28;20045;-58
2022/08/20 06:51:56;;;;;;;5.47;2.00;;;17.80;99.90;;;;;;5005040;28;20042;-61
2022/08/20 06:54:22;;;;;;;8.15;2.20;;;17.90;99.90;;;;;;5005847;28;20045;-61
2022/08/20 06:56:47;;;;;;;6.10;1.90;;;17.90;99.90;;;;;;5003159;28;20042;-60
2022/08/20 06:59:13;;;;;;;6.85;2.25;;;18.00;99.90;;;;;;5003873;28;20057;-61
2022/08/20 07:01:39;;;;;;;8.25;2.10;;;18.10;99.90;;;;;;4989804;28;20038;-60
2022/08/20 07:04:07;;;;;;;11.00;2.10;;;18.10;99.90;;;;;;5006149;28;20636;-58
2022/08/20 07:06:33;;;;;;;7.05;1.77;;;18.20;99.90;;;;;;5005551;28;20049;-63
2022/08/20 07:08:59;;;;;;;6.85;1.98;;;18.40;99.90;;;;;;4999836;28;20398;-60
2022/08/20 07:11:25;;;;;;;8.55;2.08;;;18.50;99.90;;;;;;4994504;28;20045;-60
2022/08/20 07:13:51;;;;;;;7.03;1.70;;;18.50;99.90;;;;;;4993134;28;20092;-59
2022/08/20 07:16:17;;;;;;;7.07;1.65;;;18.60;99.90;;;;;;4990543;28;20046;-60
2022/08/20 07:18:43;;;;;;;7.40;1.90;;;18.70;99.90;;;;;;4991291;28;20444;-60
2022/08/20 07:21:10;;;;;;;5.50;2.03;;;18.90;99.90;;;;;;4997902;28;20042;-63
2022/08/20 07:23:36;;;;;;;8.20;2.17;;;18.90;99.90;;;;;;5004049;28;20073;-60
2022/08/20 07:26:02;;;;;;;7.93;2.40;;;19.00;99.90;;;;;;5000243;28;20464;-59
2022/08/20 07:28:30;;;;;;;5.70;1.55;;;19.20;99.90;;;;;;5003722;28;20093;-59
2022/08/20 07:33:41;;;;;;;7.60;1.67;;;19.50;99.90;;;;;;4996799;28;20053;-60
2022/08/20 07:36:08;;;;;;;6.50;1.80;;;19.50;99.90;;;;;;4991941;28;20046;-60
2022/08/20 07:38:34;;;;;;;6.88;1.77;;;19.70;99.90;;;;;;4994111;28;20099;-60
2022/08/20 07:41:06;;;;;;;10.60;1.95;;;19.80;99.90;;;;;;5005465;28;20048;-59
2022/08/20 07:43:33;;;;;;;8.73;1.73;;;19.90;99.90;;;;;;5002453;28;20058;-62
2022/08/20 07:46:00;;;;;;;12.02;2.35;;;20.00;99.90;;;;;;5004178;28;20046;-63
2022/08/20 07:48:30;;;;;;;8.10;2.47;;;20.00;99.90;;;;;;4995463;28;20050;-61
2022/08/20 07:50:57;;;;;;;6.85;2.22;;;20.00;99.90;;;;;;5000504;28;20038;-61
2022/08/20 07:53:24;;;;;;;5.90;2.00;;;20.00;99.90;;;;;;5005294;28;20046;-60
2022/08/20 07:55:50;;;;;;;10.52;2.35;;;20.20;99.90;;;;;;5005858;28;20065;-61
2022/08/20 07:58:18;;;;;;;7.22;1.70;;;20.20;99.90;;;;;;5006554;28;20077;-63
2022/08/20 08:00:45;;;;;;;5.75;1.63;;;20.30;99.90;;;;;;5000456;28;20054;-60
2022/08/20 08:03:11;;;;;;;7.03;1.85;;;20.30;99.90;;;;;;5001517;28;20108;-59
2022/08/20 08:05:40;;;;;;;7.28;1.63;;;20.30;99.90;;;;;;4997837;28;20461;-60
2022/08/20 08:08:09;;;;;;;8.35;1.90;;;20.40;99.90;;;;;;4994141;28;20062;-60
2022/08/20 08:10:36;;;;;;;8.18;1.92;;;20.50;99.90;;;;;;4991395;28;20046;-63
2022/08/20 08:13:06;;;;;;;6.15;1.85;;;20.50;99.90;;;;;;5017531;28;20523;-63
2022/08/20 08:15:37;;;;;;;9.63;2.35;;;20.50;98.60;;;;;;5000867;28;20084;-61
2022/08/20 08:18:09;;;;;;;7.88;1.95;;;20.40;99.00;;;;;;5001989;28;20108;-60
2022/08/20 08:20:39;;;;;;;8.88;1.75;;;20.50;99.60;;;;;;4998740;28;20045;-60
2022/08/20 08:23:06;;;;;;;6.32;1.77;;;20.70;99.90;;;;;;5002194;28;20050;-63
2022/08/20 08:25:32;;;;;;;6.90;1.90;;;20.70;98.80;;;;;;4998892;28;20037;-61
2022/08/20 08:27:59;;;;;;;7.00;2.13;;;20.70;99.40;;;;;;5002121;28;20038;-60
2022/08/20 08:30:27;;;;;;;8.38;2.22;;;20.80;99.20;;;;;;5000897;28;20573;-59
2022/08/20 08:35:38;;;;;;;6.35;1.80;;;21.00;99.10;;;;;;4992756;28;20269;-60
2022/08/20 08:38:03;;;;;;;6.90;1.50;;;21.00;98.90;;;;;;4998687;28;20037;-60
2022/08/20 08:40:31;;;;;;;4.95;1.45;;;21.10;98.80;;;;;;4996761;28;20373;-61
2022/08/20 08:43:02;;;;;;;9.10;2.30;;;21.10;97.50;;;;;;5003515;28;20045;-60
2022/08/20 08:45:42;;;;;;;11.75;1.92;;;21.20;98.30;;;;;;5001435;28;20064;-60
2022/08/20 08:48:09;;;;;;;8.00;2.25;;;21.30;97.90;;;;;;5004719;28;20048;-60
2022/08/20 08:50:36;;;;;;;7.32;2.20;;;21.30;98.10;;;;;;4996318;28;20057;-59
2022/08/20 08:53:04;;;;;;;10.05;1.88;;;21.30;98.50;;;;;;5000814;28;20185;-60
2022/08/20 08:55:31;;;;;;;13.32;2.35;;;21.40;98.20;;;;;;4998085;28;20045;-61
2022/08/20 08:57:59;;;;;;;5.93;1.45;;;21.50;98.20;;;;;;4997301;28;20092;-62
2022/08/20 09:00:27;;;;;;;11.55;2.00;;;21.60;98.10;;;;;;4998712;28;20053;-60
2022/08/20 09:03:11;;;;;;;6.63;1.90;;;21.70;98.10;;;;;;4998547;28;20566;-60
2022/08/20 09:05:51;;;;;;;6.15;1.70;;;21.80;97.60;;;;;;4991164;28;20120;-60
2022/08/20 09:08:22;;;;;;;6.75;2.15;;;22.00;97.90;;;;;;5005569;28;20056;-61
2022/08/20 09:10:47;;;;;;;7.97;2.08;;;22.20;98.20;;;;;;4992087;28;20135;-59
2022/08/20 09:13:13;;;;;;;6.75;2.13;;;22.30;96.60;;;;;;5001730;28;20153;-59
2022/08/20 09:15:39;;;;;;;9.30;1.77;;;22.30;96.90;;;;;;4989005;28;20058;-60
2022/08/20 09:18:04;;;;;;;8.75;2.03;;;22.40;96.80;;;;;;5001525;28;20076;-61
2022/08/20 09:20:30;;;;;;;6.65;1.75;;;22.50;96.90;;;;;;4992321;28;20045;-64
2022/08/20 09:22:56;;;;;;;7.40;1.85;;;22.60;96.40;;;;;;5006535;28;20128;-59
2022/08/20 09:25:22;;;;;;;7.10;2.00;;;22.80;95.90;;;;;;5003132;28;20161;-61
2022/08/20 09:27:48;;;;;;;7.70;2.33;;;22.80;95.30;;;;;;4996902;28;20041;-60
2022/08/20 09:30:14;;;;;;;10.38;1.90;;;22.80;95.30;;;;;;4999671;28;20041;-60
2022/08/20 09:32:40;;;;;;;11.93;2.45;;;22.40;94.60;;;;;;4985597;28;20485;-61
2022/08/20 09:35:07;;;;;;;8.38;1.95;;;22.30;95.90;;;;;;4995239;28;20069;-63
2022/08/20 09:37:33;;;;;;;5.95;2.00;;;22.40;96.30;;;;;;4993891;28;20045;-61
2022/08/20 09:39:59;;;;;;;8.63;1.80;;;22.50;96.30;;;;;;4991049;28;20379;-59
2022/08/20 09:42:29;;;;;;;6.45;1.95;;;22.50;96.10;;;;;;4999103;28;20092;-61
2022/08/20 09:44:55;;;;;;;7.20;1.98;;;22.60;95.80;;;;;;4998606;28;20038;-60
2022/08/20 09:47:21;;;;;;;6.05;1.83;;;22.40;94.70;;;;;;5002407;28;20034;-61
2022/08/20 09:49:48;;;;;;;5.63;2.03;;;22.20;94.80;;;;;;5007160;28;20060;-65
2022/08/20 09:52:36;;;;;;;11.80;2.25;;;22.20;94.80;;;;;;5004515;28;20393;-58
2022/08/20 09:55:26;;;;;;;6.35;1.80;;;22.50;94.40;;;;;;5004951;28;20026;-60
2022/08/20 09:57:52;;;;;;;6.78;2.15;;;22.50;94.40;;;;;;5003476;28;20093;-60
2022/08/20 10:00:18;;;;;;;7.13;1.92;;;22.30;95.20;;;;;;5008660;28;20041;-61
2022/08/20 10:02:45;;;;;;;7.03;1.65;;;22.30;94.30;;;;;;4999518;28;20397;-59
2022/08/20 10:05:11;;;;;;;5.10;1.92;;;22.10;94.80;;;;;;4999807;28;20042;-60
2022/08/20 10:07:38;;;;;;;6.60;1.85;;;22.10;93.70;;;;;;4993525;28;20458;-61
2022/08/20 10:10:06;;;;;;;7.70;2.15;;;22.30;94.20;;;;;;4983924;28;20034;-64
2022/08/20 10:12:32;;;;;;;4.55;1.55;;;22.70;93.70;;;;;;5024727;23;20050;-61
2022/08/20 10:14:57;;;;;;;8.18;1.90;;;22.70;92.90;;;;;;5008206;28;20049;-61
2022/08/20 10:17:23;;;;;;;6.05;2.35;;;22.50;93.10;;;;;;5014341;28;20548;-63
2022/08/20 10:19:49;;;;;;;9.10;2.38;;;22.40;92.40;;;;;;5011583;28;20080;-63
2022/08/20 10:22:15;;;;;;;11.60;2.88;;;22.40;92.80;;;;;;5021717;28;20072;-63
2022/08/20 10:24:41;;;;;;;6.18;1.40;;;22.50;93.20;;;;;;5020908;28;20047;-63
2022/08/20 10:27:06;;;;;;;8.00;2.42;;;22.80;92.50;;;;;;5009118;28;20476;-62
2022/08/20 10:29:32;;;;;;;4.85;1.40;;;23.00;93.00;;;;;;5010450;28;20057;-62
2022/08/20 10:32:10;;;;;;;6.95;1.90;;;22.80;91.20;;;;;;5016150;28;20155;-63
2022/08/20 10:34:37;;;;;;;6.80;1.67;;;22.50;91.80;;;;;;5012703;28;20034;-63
2022/08/20 10:37:03;;;;;;;7.28;2.00;;;22.40;92.40;;;;;;5014937;28;20493;-62
2022/08/20 10:39:28;;;;;;;7.55;1.95;;;22.20;92.10;;;;;;5007008;28;20048;-62
2022/08/20 10:41:54;;;;;;;10.18;2.00;;;22.40;93.00;;;;;;5013868;28;20470;-64
2022/08/20 10:44:20;;;;;;;3.97;1.38;;;22.50;91.30;;;;;;5009869;28;20096;-62
2022/08/20 10:46:45;;;;;;;3.83;1.40;;;22.70;92.20;;;;;;5015887;28;20215;-62
2022/08/20 10:49:11;;;;;;;6.63;2.00;;;22.80;91.30;;;;;;5010898;28;20092;-63
2022/08/20 10:51:38;;;;;;;8.43;2.17;;;23.10;91.10;;;;;;5012632;28;20444;-62
2022/08/20 10:54:04;;;;;;;8.98;1.80;;;23.20;90.50;;;;;;5005236;28;20038;-62
2022/08/20 10:56:29;;;;;;;5.40;1.70;;;23.20;91.00;;;;;;5012443;28;20042;-63
2022/08/20 10:58:55;;;;;;;9.35;2.53;;;23.40;91.40;;;;;;5009194;28;20087;-62
2022/08/20 11:01:21;;;;;;;5.75;1.65;;;23.70;90.90;;;;;;5010382;28;20549;-62
2022/08/20 11:03:47;;;;;;;10.98;2.10;;;23.50;88.90;;;;;;5009534;28;20038;-63
2022/08/20 11:06:12;;;;;;;8.13;1.95;;;23.20;90.30;;;;;;5008603;28;20034;-62
2022/08/20 11:08:38;;;;;;;7.43;2.03;;;22.90;90.30;;;;;;5002506;28;20405;-61
2022/08/20 11:11:05;;;;;;;6.70;1.98;;;22.90;90.40;;;;;;5015062;28;20033;-64
2022/08/20 11:13:31;;;;;;;6.72;1.90;;;23.00;90.80;;;;;;5015108;28;20081;-62
2022/08/20 11:15:57;;;;;;;7.70;1.90;;;23.00;90.20;;;;;;5018404;28;20041;-64
2022/08/20 11:18:23;;;;;;;5.45;1.63;;;23.00;90.80;;;;;;5011171;28;20506;-62
2022/08/20 11:20:49;;;;;;;5.32;1.67;;;23.10;90.90;;;;;;5005392;28;20131;-64
2022/08/20 11:23:14;;;;;;;6.93;1.77;;;23.10;90.30;;;;;;5011154;28;20049;-63
2022/08/20 11:25:40;;;;;;;8.98;2.08;;;23.50;90.70;;;;;;5011350;28;20396;-61
2022/08/20 11:28:06;;;;;;;6.72;1.85;;;23.90;90.80;;;;;;5017038;28;20045;-62
2022/08/20 11:30:34;;;;;;;8.82;2.38;;;24.20;90.40;;;;;;5016277;28;20292;-61
2022/08/20 11:33:00;;;;;;;7.13;1.88;;;24.50;90.30;;;;;;5015200;28;20041;-62
2022/08/20 11:35:28;;;;;;;7.00;2.25;;;24.70;90.20;;;;;;5014836;28;20131;-63
2022/08/20 11:37:56;;;;;;;5.63;2.15;;;24.90;89.70;;;;;;4996297;28;20451;-62
2022/08/20 11:40:22;;;;;;;7.68;2.15;;;24.70;86.70;;;;;;5016157;28;20053;-62
2022/08/20 11:42:48;;;;;;;6.40;1.80;;;24.80;88.30;;;;;;5008227;28;20041;-63
2022/08/20 11:45:14;;;;;;;6.75;1.98;;;24.70;88.00;;;;;;5015581;28;20041;-61
2022/08/20 11:47:40;;;;;;;7.53;2.03;;;24.50;87.90;;;;;;5022603;28;20053;-63
2022/08/20 11:50:15;;;;;;;4.80;1.40;;;24.30;85.60;;;;;;5019222;28;20324;-60
2022/08/20 11:52:42;;;;;;;5.80;1.50;;;24.20;88.20;;;;;;5016482;28;20046;-61
2022/08/20 11:55:11;;;;;;;8.80;2.42;;;24.10;87.20;;;;;;5014727;28;20029;-62
2022/08/20 11:57:41;;;;;;;7.85;2.13;;;23.60;85.50;;;;;;5017046;28;20037;-62
2022/08/20 12:00:13;;;;;;;6.65;2.10;;;23.30;87.60;;;;;;5019102;28;20077;-63
2022/08/20 12:02:39;;;;;;;6.78;2.13;;;23.30;87.60;;;;;;5021293;28;20108;-62
2022/08/20 12:05:05;;;;;;;7.05;2.15;;;23.30;88.10;;;;;;5013582;28;20056;-63
2022/08/20 12:07:31;;;;;;;10.23;2.60;;;23.30;88.40;;;;;;5013678;28;20049;-61
2022/08/20 12:09:57;;;;;;;6.20;2.15;;;23.40;88.40;;;;;;5014383;28;20196;-62
2022/08/20 12:12:23;;;;;;;8.00;2.30;;;23.60;87.60;;;;;;5015891;28;20042;-61
2022/08/20 12:14:53;;;;;;;6.30;1.75;;;23.80;84.90;;;;;;5009498;28;20095;-61
2022/08/20 12:17:24;;;;;;;7.07;2.13;;;24.00;86.30;;;;;;5012787;28;20046;-63
2022/08/20 12:19:51;;;;;;;8.25;1.90;;;24.10;85.70;;;;;;5010452;28;20256;-64
2022/08/20 12:22:18;;;;;;;8.38;1.75;;;24.20;87.50;;;;;;5023591;28;20056;-62
2022/08/20 12:24:44;;;;;;;5.75;1.92;;;24.40;85.00;;;;;;5007922;28;20044;-62
2022/08/20 12:27:16;;;;;;;9.63;2.05;;;24.50;82.90;;;;;;5014216;28;20045;-60
2022/08/20 12:29:44;;;;;;;8.75;2.15;;;24.40;82.40;;;;;;5006350;28;20057;-62
2022/08/20 12:32:10;;;;;;;5.38;1.83;;;24.20;83.70;;;;;;5017611;28;20061;-63
2022/08/20 12:34:38;;;;;;;8.70;2.30;;;24.10;83.80;;;;;;5011214;28;20038;-62
2022/08/20 12:37:10;;;;;;;5.07;1.65;;;24.20;83.50;;;;;;5020122;28;20042;-61
2022/08/20 12:39:39;;;;;;;6.20;1.95;;;24.20;83.40;;;;;;5021653;28;20507;-63
2022/08/20 12:42:05;;;;;;;7.85;1.88;;;24.20;84.70;;;;;;5014639;28;20052;-61
2022/08/20 12:44:32;;;;;;;6.32;2.08;;;24.20;83.90;;;;;;5005560;28;20042;-60
2022/08/20 12:47:24;;;;;;;8.43;2.10;;;24.30;83.10;;;;;;5019577;28;20096;-62
2022/08/20 12:49:53;;;;;;;8.10;2.20;;;24.20;82.30;;;;;;5014369;28;20042;-61
2022/08/20 12:52:21;;;;;;;5.50;1.60;;;23.90;81.60;;;;;;5012030;28;20226;-63
2022/08/20 12:54:47;;;;;;;6.40;1.70;;;23.80;81.50;;;;;;5015915;28;20069;-63
2022/08/20 12:57:28;;;;;;;6.65;1.80;;;23.90;79.30;;;;;;5017782;28;20034;-63
2022/08/20 12:59:59;;;;;;;6.32;1.75;;;24.00;80.80;;;;;;5010475;28;20409;-63